Time;durP1;ratioP1;P1;durP2;ratioP2;P2;SDS_P1;SDS_P2;PMS_P1;PMS_P2;Temp;Humidity;BMP_temperature;BMP_pressure;BME280_temperature;BME280_humidity;BME280_pressure;Samples;Min_cycle;Max_cycle;Signal;HPM_P1;HPM_P2
2022/12/20 00:00:59;;;;;;;6.20;3.38;;;;;;;9.69;73.01;101298.53;5085854;28;20391;-59
2022/12/20 00:03:24;;;;;;;6.47;3.10;;;;;;;9.71;73.29;101305.56;5089146;28;20020;-58
2022/12/20 00:05:49;;;;;;;3.25;2.80;;;;;;;9.70;73.32;101303.84;5086918;28;20664;-58
2022/12/20 00:08:15;;;;;;;4.82;3.15;;;;;;;9.70;73.44;101303.84;5079908;28;20050;-59
2022/12/20 00:10:43;;;;;;;5.50;3.38;;;;;;;9.71;73.24;101310.25;5086794;28;20431;-59
2022/12/20 00:13:10;;;;;;;4.68;2.90;;;;;;;9.73;73.14;101300.59;5082028;28;20040;-59
2022/12/20 00:15:36;;;;;;;5.07;3.10;;;;;;;9.74;73.10;101304.22;5086314;28;20576;-60
2022/12/20 00:18:02;;;;;;;6.35;3.17;;;;;;;9.76;73.11;101302.06;5085897;28;20610;-60
2022/12/20 00:20:27;;;;;;;5.43;3.25;;;;;;;9.77;72.82;101295.44;5084632;28;20024;-60
2022/12/20 00:22:53;;;;;;;7.32;3.63;;;;;;;9.79;72.98;101296.06;5084982;28;20498;-60
2022/12/20 00:25:19;;;;;;;5.25;3.58;;;;;;;9.81;72.64;101293.88;5084633;28;20024;-60
2022/12/20 00:27:45;;;;;;;6.85;3.60;;;;;;;9.83;72.76;101300.03;5090721;28;20111;-60
2022/12/20 00:30:11;;;;;;;7.80;3.90;;;;;;;9.84;72.97;101279.53;5088049;28;20486;-60
2022/12/20 00:32:36;;;;;;;4.43;3.40;;;;;;;9.84;72.59;101279.53;5088848;28;20067;-60
2022/12/20 00:35:02;;;;;;;6.65;3.50;;;;;;;9.85;72.78;101275.69;5089210;28;20057;-59
2022/12/20 00:37:28;;;;;;;7.90;3.40;;;;;;;9.85;73.08;101286.78;5090658;28;20032;-60
2022/12/20 00:39:53;;;;;;;5.40;3.47;;;;;;;9.86;72.58;101274.59;5091327;28;20418;-60
2022/12/20 00:42:18;;;;;;;8.88;3.55;;;;;;;9.88;72.58;101278.00;5087963;28;20479;-60
2022/12/20 00:44:43;;;;;;;7.65;3.65;;;;;;;9.90;72.67;101261.94;5089927;28;20526;-59
2022/12/20 00:47:09;;;;;;;7.03;4.03;;;;;;;9.92;72.45;101259.78;5090900;28;20035;-60
2022/12/20 00:49:37;;;;;;;9.25;3.97;;;;;;;9.94;72.31;101257.63;5089759;28;20528;-60
2022/12/20 00:52:02;;;;;;;7.72;3.72;;;;;;;9.96;72.56;101263.78;5085199;28;20514;-60
2022/12/20 00:54:27;;;;;;;9.02;3.85;;;;;;;10.00;72.15;101264.13;5087013;28;20032;-60
2022/12/20 00:56:52;;;;;;;8.02;3.67;;;;;;;10.01;72.19;101272.22;5089258;28;20036;-60
2022/12/20 00:59:19;;;;;;;8.35;3.97;;;;;;;10.04;72.12;101279.22;5085368;28;20115;-60
2022/12/20 01:01:46;;;;;;;8.70;4.07;;;;;;;10.02;72.61;101273.91;5082554;28;20036;-59
2022/12/20 01:04:11;;;;;;;11.23;4.15;;;;;;;10.03;72.50;101269.22;5090854;28;20035;-60
2022/12/20 01:06:37;;;;;;;8.63;3.85;;;;;;;10.04;73.35;101266.19;5090209;28;20701;-60
2022/12/20 01:09:03;;;;;;;7.95;3.70;;;;;;;10.04;74.20;101257.88;5089019;28;20032;-60
2022/12/20 01:11:31;;;;;;;11.57;4.32;;;;;;;10.03;74.77;101270.06;5090118;28;20785;-60
2022/12/20 01:14:01;;;;;;;12.25;4.03;;;;;;;10.04;74.64;101282.00;5089065;28;20056;-60
2022/12/20 01:16:46;;;;;;;9.35;3.92;;;;;;;10.03;75.16;101283.91;5083322;28;20115;-59
2022/12/20 01:19:14;;;;;;;8.73;3.88;;;;;;;10.01;75.50;101277.75;5070385;28;20028;-60
2022/12/20 01:21:43;;;;;;;7.25;3.70;;;;;;;10.00;75.40;101281.63;5073570;28;20057;-60
2022/12/20 01:24:10;;;;;;;7.97;3.72;;;;;;;9.98;76.02;101267.16;5089758;28;20106;-60
2022/12/20 01:26:36;;;;;;;8.38;4.25;;;;;;;9.99;76.42;101266.06;5087486;28;20028;-60
2022/12/20 01:29:01;;;;;;;9.30;4.13;;;;;;;9.98;77.45;101289.34;5089250;28;20068;-60
2022/12/20 01:31:28;;;;;;;8.85;3.72;;;;;;;9.95;77.70;101273.19;5087739;28;20024;-60
2022/12/20 01:33:53;;;;;;;8.00;3.97;;;;;;;9.94;78.27;101281.72;5086965;28;20023;-61
2022/12/20 01:36:23;;;;;;;8.63;3.70;;;;;;;9.93;78.77;101275.34;5088215;28;20081;-60
2022/12/20 01:38:49;;;;;;;5.68;3.35;;;;;;;9.90;79.60;101267.47;5090168;28;20032;-60
2022/12/20 01:41:17;;;;;;;7.05;3.70;;;;;;;9.88;79.70;101255.81;5088880;28;20055;-60
2022/12/20 01:43:56;;;;;;;6.47;3.97;;;;;;;9.84;80.06;101260.97;5089793;28;20089;-59
2022/12/20 01:46:24;;;;;;;7.68;3.83;;;;;;;9.82;80.53;101257.63;5088167;28;20040;-60
2022/12/20 01:48:59;;;;;;;5.28;3.70;;;;;;;9.79;80.94;101258.09;5088706;28;20019;-60
2022/12/20 01:51:25;;;;;;;7.00;3.83;;;;;;;9.79;81.07;101258.09;5085238;28;20044;-60
2022/12/20 01:53:57;;;;;;;5.57;3.85;;;;;;;9.77;81.67;101246.38;5085981;28;20047;-60
2022/12/20 01:56:22;;;;;;;6.80;3.45;;;;;;;9.78;81.64;101225.03;5089788;28;20031;-60
2022/12/20 01:58:52;;;;;;;6.72;3.60;;;;;;;9.77;81.79;101245.53;5090060;28;20028;-60
2022/12/20 02:01:17;;;;;;;5.25;3.40;;;;;;;9.76;81.61;101235.53;5088605;28;20028;-60
2022/12/20 02:03:43;;;;;;;8.90;4.68;;;;;;;9.75;81.86;101225.53;5090416;28;20024;-60
2022/12/20 02:06:18;;;;;;;9.13;4.35;;;;;;;9.75;82.07;101233.84;5089327;28;20028;-60
2022/12/20 02:08:47;;;;;;;12.13;4.88;;;;;;;9.72;82.52;101235.16;5085863;28;20024;-60
2022/12/20 02:11:30;;;;;;;11.13;4.70;;;;;;;9.72;82.64;101235.16;5085812;28;20029;-59
2022/12/20 02:14:19;;;;;;;11.95;4.45;;;;;;;9.73;82.53;101217.44;5089214;28;20035;-60
2022/12/20 02:16:54;;;;;;;9.50;4.20;;;;;;;9.71;82.89;101205.75;5089747;28;20491;-60
2022/12/20 02:19:45;;;;;;;6.25;4.20;;;;;;;9.71;82.88;101199.38;5086483;28;20030;-60
2022/12/20 02:22:19;;;;;;;7.10;3.67;;;;;;;9.69;83.00;101198.75;5075816;28;20502;-60
2022/12/20 02:25:15;;;;;;;5.55;3.65;;;;;;;9.68;82.56;101189.59;5089435;28;20020;-60
2022/12/20 02:28:02;;;;;;;4.03;3.10;;;;;;;9.67;82.70;101193.47;5072658;28;20052;-60
2022/12/20 02:30:32;;;;;;;5.80;3.25;;;;;;;9.67;82.45;101203.69;5087666;28;20479;-60
2022/12/20 02:33:01;;;;;;;4.95;3.20;;;;;;;9.66;82.13;101197.31;5087939;28;20031;-60
2022/12/20 02:35:31;;;;;;;4.30;3.15;;;;;;;9.66;82.59;101199.22;5087376;28;20044;-60
2022/12/20 02:37:59;;;;;;;6.13;2.88;;;;;;;9.66;82.39;101196.47;5088836;28;20036;-60
2022/12/20 02:40:31;;;;;;;5.07;3.00;;;;;;;9.65;82.24;101190.06;5070359;28;20024;-60
2022/12/20 02:43:01;;;;;;;5.65;2.70;;;;;;;9.66;82.12;101196.47;5085292;28;20137;-60
2022/12/20 02:45:32;;;;;;;4.85;3.00;;;;;;;9.66;81.73;101185.38;5084226;28;20404;-60
2022/12/20 02:48:09;;;;;;;4.03;2.90;;;;;;;9.68;81.61;101188.75;5088848;28;20028;-60
2022/12/20 02:50:39;;;;;;;4.70;2.80;;;;;;;9.67;81.55;101192.59;5089533;28;20052;-60
2022/12/20 02:53:06;;;;;;;4.78;3.10;;;;;;;9.68;81.53;101169.38;5080175;28;20024;-60
2022/12/20 02:55:40;;;;;;;3.53;2.78;;;;;;;9.69;81.18;101177.44;5093351;28;20158;-60
2022/12/20 02:58:20;;;;;;;3.80;2.88;;;;;;;9.70;81.11;101178.28;5092095;28;20035;-60
2022/12/20 03:00:49;;;;;;;4.45;2.92;;;;;;;9.70;80.99;101176.34;5079803;28;20125;-60
2022/12/20 03:03:21;;;;;;;4.47;3.08;;;;;;;9.72;80.77;101167.81;5088335;28;20020;-60
2022/12/20 03:05:49;;;;;;;3.45;2.80;;;;;;;9.73;80.32;101175.03;5093431;28;20076;-60
2022/12/20 03:08:14;;;;;;;4.18;2.50;;;;;;;9.74;80.41;101176.69;5092464;28;20020;-60
2022/12/20 03:10:40;;;;;;;3.70;2.60;;;;;;;9.75;80.33;101170.94;5090678;28;20477;-60
2022/12/20 03:13:05;;;;;;;4.95;2.85;;;;;;;9.76;80.20;101172.63;5092000;28;20043;-60
2022/12/20 03:15:31;;;;;;;4.18;2.63;;;;;;;9.77;79.92;101179.84;5087673;28;20035;-60
2022/12/20 03:17:56;;;;;;;6.65;2.80;;;;;;;9.79;79.87;101188.78;5088709;28;20108;-60
2022/12/20 03:20:21;;;;;;;5.88;2.78;;;;;;;9.79;79.95;101169.38;5089017;28;20122;-60
2022/12/20 03:22:46;;;;;;;4.35;2.80;;;;;;;9.81;79.62;101171.91;5090423;28;20036;-60
2022/12/20 03:25:12;;;;;;;3.83;2.55;;;;;;;9.83;79.22;101164.19;5091280;28;20035;-60
2022/12/20 03:27:38;;;;;;;5.55;2.80;;;;;;;9.85;79.54;101178.66;5088972;28;20024;-60
2022/12/20 03:30:05;;;;;;;4.35;2.47;;;;;;;9.87;79.42;101161.78;5092099;28;20031;-60
2022/12/20 03:32:30;;;;;;;5.95;3.25;;;;;;;9.89;79.37;101160.44;5090356;28;20059;-60
2022/12/20 03:34:55;;;;;;;4.95;2.50;;;;;;;9.88;79.23;101161.53;5090792;28;20515;-60
2022/12/20 03:37:21;;;;;;;4.43;2.88;;;;;;;9.90;79.00;101164.91;5081969;28;20079;-60
2022/12/20 03:39:46;;;;;;;4.15;2.80;;;;;;;9.92;79.23;101170.22;5071893;28;20036;-60
2022/12/20 03:42:11;;;;;;;3.25;2.60;;;;;;;9.94;79.08;101176.34;5086370;28;20830;-60
2022/12/20 03:44:36;;;;;;;5.65;2.80;;;;;;;9.95;79.00;101170.59;5092645;28;20036;-60
2022/12/20 03:47:02;;;;;;;3.40;2.55;;;;;;;9.96;78.90;101180.59;5092397;28;20043;-60
2022/12/20 03:49:27;;;;;;;3.70;2.50;;;;;;;9.98;78.79;101172.88;5091136;28;20068;-60
2022/12/20 03:51:53;;;;;;;5.82;2.72;;;;;;;9.99;78.59;101177.34;5091328;28;20068;-60
2022/12/20 03:54:18;;;;;;;3.38;2.53;;;;;;;10.02;78.53;101176.84;5089313;28;20061;-60
2022/12/20 03:56:44;;;;;;;5.13;2.70;;;;;;;10.04;78.66;101176.59;5086304;28;20036;-60
2022/12/20 03:59:09;;;;;;;3.45;2.60;;;;;;;10.06;78.50;101169.75;5090864;28;20074;-60
2022/12/20 04:01:35;;;;;;;4.78;2.75;;;;;;;10.07;78.52;101165.88;5088731;28;20021;-60
2022/12/20 04:04:01;;;;;;;4.22;2.50;;;;;;;10.11;78.16;101154.31;5091294;28;20040;-60
2022/12/20 04:06:27;;;;;;;3.53;2.60;;;;;;;10.14;77.92;101156.56;5090970;28;20039;-60
2022/12/20 04:08:53;;;;;;;4.95;2.90;;;;;;;10.17;78.19;101158.84;5088570;28;20028;-60
2022/12/20 04:11:18;;;;;;;4.90;2.80;;;;;;;10.19;78.02;101168.63;5086631;28;20076;-60
2022/12/20 04:13:53;;;;;;;4.15;2.53;;;;;;;10.20;77.98;101164.75;5073157;28;20028;-60
2022/12/20 04:16:21;;;;;;;3.60;2.92;;;;;;;10.22;77.46;101165.38;5074500;28;20664;-60
2022/12/20 04:18:46;;;;;;;3.92;2.80;;;;;;;10.26;77.56;101157.44;5090732;28;20024;-60
2022/12/20 04:21:12;;;;;;;3.22;2.45;;;;;;;10.26;77.65;101163.84;5091906;28;20020;-60
2022/12/20 04:23:40;;;;;;;5.80;2.90;;;;;;;10.28;77.61;101164.41;5089225;28;20032;-60
2022/12/20 04:26:07;;;;;;;3.05;2.67;;;;;;;10.29;77.50;101156.94;5090220;28;20024;-60
2022/12/20 04:28:33;;;;;;;3.80;2.78;;;;;;;10.28;77.49;101156.09;5086632;28;20051;-60
2022/12/20 04:30:58;;;;;;;6.03;2.70;;;;;;;10.29;77.63;101151.38;5082135;28;20548;-60
2022/12/20 04:33:25;;;;;;;3.15;2.50;;;;;;;10.31;77.32;101144.53;5091113;28;20030;-60
2022/12/20 04:35:50;;;;;;;5.82;2.60;;;;;;;10.32;77.36;101143.41;5089662;28;20097;-60
2022/12/20 04:38:17;;;;;;;3.70;2.58;;;;;;;10.35;77.04;101147.66;5086861;28;20047;-60
2022/12/20 04:40:42;;;;;;;4.32;2.58;;;;;;;10.37;77.08;101144.63;5090839;28;20036;-60
2022/12/20 04:43:08;;;;;;;4.18;2.95;;;;;;;10.38;77.14;101149.94;5091393;28;20024;-60
2022/12/20 04:45:34;;;;;;;4.95;2.67;;;;;;;10.38;77.08;101138.84;5090467;28;20475;-60
2022/12/20 04:47:59;;;;;;;4.20;2.78;;;;;;;10.38;77.17;101149.94;5079157;28;20043;-60
2022/12/20 04:50:24;;;;;;;5.57;2.63;;;;;;;10.39;77.08;101145.22;5070874;28;20115;-60
2022/12/20 04:55:40;;;;;;;3.63;2.50;;;;;;;10.39;77.46;101145.22;5088948;28;20131;-60
2022/12/20 04:58:06;;;;;;;4.60;2.72;;;;;;;10.40;77.27;101149.69;5089851;28;20040;-60
2022/12/20 05:00:32;;;;;;;4.32;2.70;;;;;;;10.40;77.33;101144.13;5090388;28;20031;-59
2022/12/20 05:02:57;;;;;;;4.72;3.20;;;;;;;10.41;77.33;101131.94;5084636;28;20035;-60
2022/12/20 05:05:23;;;;;;;5.97;2.88;;;;;;;10.41;77.21;101131.94;5086555;28;20028;-59
2022/12/20 05:07:49;;;;;;;6.90;2.60;;;;;;;10.41;77.50;101131.94;5087217;28;20016;-59
2022/12/20 05:10:14;;;;;;;4.80;2.85;;;;;;;10.41;77.65;101131.94;5087157;28;20082;-59
2022/12/20 05:12:39;;;;;;;4.38;2.67;;;;;;;10.40;77.73;101128.31;5090496;28;20502;-59
2022/12/20 05:15:06;;;;;;;5.55;2.70;;;;;;;10.43;77.70;101129.78;5089072;28;20107;-59
2022/12/20 05:17:31;;;;;;;4.90;2.25;;;;;;;10.43;77.90;101122.28;5090432;28;20031;-59
2022/12/20 05:19:57;;;;;;;5.60;2.70;;;;;;;10.43;77.97;101125.06;5081096;28;20102;-59
2022/12/20 05:27:51;;;;;;;6.65;2.90;;;;;;;10.44;77.96;101090.66;5069288;28;20051;-59
2022/12/20 05:30:17;;;;;;;5.57;2.65;;;;;;;10.46;77.79;101096.00;5069766;28;20438;-60
2022/12/20 05:32:42;;;;;;;4.88;2.78;;;;;;;10.45;77.92;101102.59;5090062;28;20039;-59
2022/12/20 05:35:08;;;;;;;6.93;2.70;;;;;;;10.45;77.90;101100.72;5086033;28;20590;-60
2022/12/20 05:37:33;;;;;;;4.18;2.70;;;;;;;10.46;77.97;101093.22;5088225;28;20093;-59
2022/12/20 05:39:58;;;;;;;5.03;2.90;;;;;;;10.46;78.16;101090.44;5087632;28;20051;-59
2022/12/20 05:42:24;;;;;;;3.95;2.60;;;;;;;10.45;78.01;101088.72;5088009;28;20021;-60
2022/12/20 05:44:50;;;;;;;4.75;2.70;;;;;;;10.44;78.02;101093.44;5088152;28;20047;-59
2022/12/20 05:47:15;;;;;;;3.78;2.42;;;;;;;10.44;77.92;101089.84;5089468;28;20143;-59
2022/12/20 05:49:40;;;;;;;4.65;2.60;;;;;;;10.44;77.88;101087.91;5085085;28;20120;-60
2022/12/20 05:52:06;;;;;;;5.53;2.60;;;;;;;10.44;77.96;101087.06;5089657;28;20063;-59
2022/12/20 05:54:31;;;;;;;4.57;2.67;;;;;;;10.43;77.98;101080.66;5081472;28;20025;-59
2022/12/20 05:56:57;;;;;;;3.08;2.60;;;;;;;10.44;77.96;101079.56;5091533;28;20028;-59
2022/12/20 05:59:22;;;;;;;6.55;2.40;;;;;;;10.44;77.80;101071.25;5089785;28;20032;-59
2022/12/20 06:01:47;;;;;;;4.97;2.58;;;;;;;10.44;77.86;101065.69;5080928;28;20471;-60
2022/12/20 06:04:13;;;;;;;3.28;2.47;;;;;;;10.44;77.59;101071.25;5085491;28;20480;-60
2022/12/20 06:06:38;;;;;;;4.80;2.30;;;;;;;10.43;77.59;101058.47;5087032;28;20085;-60
2022/12/20 06:09:03;;;;;;;2.78;2.20;;;;;;;10.43;77.49;101046.53;5082105;28;20454;-60
2022/12/20 06:11:28;;;;;;;4.15;2.40;;;;;;;10.41;77.44;101027.34;5089407;28;20039;-60
2022/12/20 06:13:54;;;;;;;4.50;2.50;;;;;;;10.42;77.35;101026.25;5089963;28;20016;-60
2022/12/20 06:16:19;;;;;;;5.15;2.55;;;;;;;10.41;77.32;101029.28;5083198;28;20024;-60
2022/12/20 06:18:45;;;;;;;4.65;2.40;;;;;;;10.41;76.86;101032.88;5082200;28;20017;-59
2022/12/20 06:21:10;;;;;;;3.83;2.83;;;;;;;10.41;76.73;101035.66;5087644;28;20115;-59
2022/12/20 06:23:35;;;;;;;3.20;2.20;;;;;;;10.41;76.77;101035.66;5082699;28;20043;-59
2022/12/20 06:26:03;;;;;;;4.03;2.28;;;;;;;10.42;76.56;101028.22;5086523;28;20111;-59
2022/12/20 06:28:28;;;;;;;4.57;2.45;;;;;;;10.43;75.99;101035.44;5090210;28;20679;-59
2022/12/20 06:30:55;;;;;;;3.35;1.85;;;;;;;10.42;76.07;101039.31;5091724;28;20035;-59
2022/12/20 06:33:21;;;;;;;5.18;2.50;;;;;;;10.41;75.92;101038.44;5091492;28;20093;-60
2022/12/20 06:35:48;;;;;;;3.17;2.00;;;;;;;10.42;75.66;101048.47;5086593;28;20048;-59
2022/12/20 06:38:14;;;;;;;2.15;1.95;;;;;;;10.42;75.56;101040.16;5086902;28;20039;-59
2022/12/20 06:40:39;;;;;;;3.15;2.22;;;;;;;10.42;75.43;101045.69;5090418;28;20027;-59
2022/12/20 06:43:04;;;;;;;3.92;2.22;;;;;;;10.42;75.26;101040.16;5090936;28;20082;-59
2022/12/20 06:45:30;;;;;;;4.20;2.30;;;;;;;10.42;75.40;101042.91;5082760;28;20028;-60
2022/12/20 06:47:57;;;;;;;4.70;2.42;;;;;;;10.42;75.16;101040.16;5085285;28;20063;-60
2022/12/20 06:50:23;;;;;;;3.15;2.22;;;;;;;10.43;74.74;101038.19;5090654;28;20032;-60
2022/12/20 06:52:48;;;;;;;4.97;2.45;;;;;;;10.44;74.61;101039.88;5092402;28;20028;-60
2022/12/20 06:55:13;;;;;;;5.68;2.13;;;;;;;10.44;74.68;101037.94;5089787;28;20509;-59
2022/12/20 06:57:39;;;;;;;3.70;2.10;;;;;;;10.44;74.58;101035.16;5092750;28;20028;-59
2022/12/20 07:00:05;;;;;;;3.10;2.47;;;;;;;10.44;74.96;101043.50;5087574;28;20031;-59
2022/12/20 07:02:30;;;;;;;3.25;2.40;;;;;;;10.45;74.09;101041.56;5088894;28;20028;-59
2022/12/20 07:04:56;;;;;;;3.33;2.08;;;;;;;10.46;74.08;101041.34;5088134;28;20122;-59
2022/12/20 07:07:21;;;;;;;2.13;1.83;;;;;;;10.45;74.16;101045.19;5082742;28;20115;-60
2022/12/20 07:09:47;;;;;;;2.50;2.00;;;;;;;10.46;74.06;101046.88;5091746;28;20056;-59
2022/12/20 07:12:12;;;;;;;5.93;2.13;;;;;;;10.48;73.91;101055.78;5089955;28;20465;-59
2022/12/20 07:14:37;;;;;;;3.17;2.03;;;;;;;10.47;73.76;101048.56;5090715;28;20036;-58
2022/12/20 07:17:04;;;;;;;4.05;2.13;;;;;;;10.48;73.57;101050.22;5089175;28;20080;-58
2022/12/20 07:19:30;;;;;;;3.92;2.10;;;;;;;10.47;73.58;101054.09;5088504;28;20027;-58
2022/12/20 07:21:55;;;;;;;2.22;1.90;;;;;;;10.48;73.64;101050.22;5084742;28;20065;-58
2022/12/20 07:24:20;;;;;;;4.13;2.28;;;;;;;10.50;73.34;101048.06;5081434;28;20554;-58
2022/12/20 07:26:46;;;;;;;5.07;2.58;;;;;;;10.50;73.38;101045.28;5078456;28;20110;-59
2022/12/20 07:29:12;;;;;;;5.53;2.35;;;;;;;10.51;73.26;101046.13;5085938;28;20024;-59
2022/12/20 07:31:38;;;;;;;2.55;1.90;;;;;;;10.54;72.64;101049.25;5082198;28;20047;-60
2022/12/20 07:34:03;;;;;;;3.15;2.10;;;;;;;10.55;73.01;101050.94;5083266;28;20028;-61
2022/12/20 07:36:28;;;;;;;4.18;2.10;;;;;;;10.57;73.11;101050.66;5084918;28;20103;-60
2022/12/20 07:38:54;;;;;;;2.72;2.10;;;;;;;10.59;72.84;101050.44;5085674;28;20031;-61
2022/12/20 07:41:19;;;;;;;3.80;2.00;;;;;;;10.57;73.01;101053.44;5079353;28;20028;-60
2022/12/20 07:43:45;;;;;;;5.45;2.25;;;;;;;10.59;72.89;101056.00;5084757;28;20028;-60
2022/12/20 07:46:13;;;;;;;4.82;2.22;;;;;;;10.57;72.94;101059.88;5086592;28;20056;-60
2022/12/20 07:48:38;;;;;;;2.80;1.90;;;;;;;10.58;72.62;101063.47;5077877;28;20032;-59
2022/12/20 07:51:13;;;;;;;4.65;2.10;;;;;;;10.59;72.57;101064.31;5090025;28;20383;-58
2022/12/20 07:53:43;;;;;;;2.47;2.03;;;;;;;10.58;72.61;101063.47;5090873;28;20174;-58
2022/12/20 07:56:10;;;;;;;4.35;2.15;;;;;;;10.59;72.79;101065.16;5089385;28;20024;-58
2022/12/20 07:58:38;;;;;;;4.50;2.00;;;;;;;10.60;72.57;101072.38;5088266;28;20126;-58
2022/12/20 08:01:03;;;;;;;2.78;2.08;;;;;;;10.61;72.98;101078.78;5086933;28;20028;-58
2022/12/20 08:03:34;;;;;;;2.35;1.98;;;;;;;10.60;73.59;101075.16;5090271;28;20031;-58
2022/12/20 08:06:03;;;;;;;5.43;2.15;;;;;;;10.61;73.96;101071.31;5090854;28;20042;-58
2022/12/20 08:08:31;;;;;;;4.85;2.00;;;;;;;10.59;74.58;101067.09;5089604;28;20040;-59
2022/12/20 08:10:56;;;;;;;3.38;1.90;;;;;;;10.60;74.64;101071.56;5089062;28;20024;-58
2022/12/20 08:13:22;;;;;;;5.43;2.20;;;;;;;10.59;74.68;101067.09;5088537;28;20054;-58
2022/12/20 08:15:48;;;;;;;4.28;2.10;;;;;;;10.57;75.17;101064.56;5085441;28;20448;-59
2022/12/20 08:18:15;;;;;;;5.05;2.28;;;;;;;10.56;75.16;101054.53;5089123;28;20040;-56
2022/12/20 08:20:40;;;;;;;5.57;2.25;;;;;;;10.54;75.44;101057.59;5090264;28;20024;-59
2022/12/20 08:23:05;;;;;;;3.90;2.00;;;;;;;10.54;75.73;101063.13;5090530;28;20440;-58
2022/12/20 08:25:33;;;;;;;3.30;2.13;;;;;;;10.52;76.38;101062.53;5090197;28;20024;-58
2022/12/20 08:28:01;;;;;;;4.35;2.08;;;;;;;10.52;76.14;101075.56;5089830;28;20487;-60
2022/12/20 08:30:27;;;;;;;3.70;1.95;;;;;;;10.50;76.52;101064.72;5088206;28;20059;-60
2022/12/20 08:32:52;;;;;;;5.47;2.38;;;;;;;10.52;76.86;101068.06;5086212;28;20062;-60
2022/12/20 08:35:17;;;;;;;3.45;2.60;;;;;;;10.50;77.34;101066.66;5081838;28;20056;-60
2022/12/20 08:37:43;;;;;;;6.57;3.20;;;;;;;10.49;77.56;101064.94;5089906;28;20563;-59
2022/12/20 08:40:08;;;;;;;3.90;2.70;;;;;;;10.46;77.54;101069.09;5090401;28;20399;-59
2022/12/20 08:42:34;;;;;;;3.95;2.67;;;;;;;10.46;77.65;101073.78;5090244;28;20387;-59
2022/12/20 08:44:59;;;;;;;3.13;2.40;;;;;;;10.46;77.73;101057.16;5088766;28;20078;-60
2022/12/20 08:47:25;;;;;;;3.10;2.17;;;;;;;10.45;77.61;101056.31;5090433;28;20661;-60
2022/12/20 08:49:50;;;;;;;2.95;1.83;;;;;;;10.45;77.77;101059.06;5090137;28;20475;-59
2022/12/20 08:52:15;;;;;;;4.57;2.22;;;;;;;10.44;78.28;101049.03;5085361;28;20043;-60
2022/12/20 08:54:41;;;;;;;3.00;2.20;;;;;;;10.42;78.53;101056.78;5090197;28;20430;-60
2022/12/20 08:57:07;;;;;;;5.70;2.60;;;;;;;10.42;78.71;101051.25;5089896;28;20123;-60
2022/12/20 08:59:32;;;;;;;2.53;2.25;;;;;;;10.42;78.92;101056.78;5076610;28;20120;-60
2022/12/20 09:01:58;;;;;;;6.40;2.50;;;;;;;10.43;79.00;101050.16;5069233;28;20107;-60
2022/12/20 09:04:23;;;;;;;3.55;2.15;;;;;;;10.42;79.39;101045.69;5070135;28;20060;-60
2022/12/20 09:06:49;;;;;;;4.60;2.58;;;;;;;10.40;79.66;101044.25;5084888;28;20403;-60
2022/12/20 09:09:15;;;;;;;5.57;2.35;;;;;;;10.37;79.64;101040.03;5087746;28;20443;-61
2022/12/20 09:11:40;;;;;;;4.90;2.30;;;;;;;10.36;80.06;101035.56;5084200;28;20123;-60
2022/12/20 09:14:07;;;;;;;3.63;2.50;;;;;;;10.34;80.14;101035.00;5086196;28;20814;-60
2022/12/20 09:16:32;;;;;;;3.67;2.58;;;;;;;10.34;80.42;101046.09;5080459;28;20476;-60
2022/12/20 09:18:59;;;;;;;3.60;2.30;;;;;;;10.32;80.36;101043.53;5083418;28;20024;-60
2022/12/20 09:21:25;;;;;;;6.07;2.90;;;;;;;10.28;80.73;101042.34;5073206;28;20115;-62
2022/12/20 09:23:52;;;;;;;5.22;2.80;;;;;;;10.30;80.88;101037.41;5076460;28;20115;-60
2022/12/20 09:26:18;;;;;;;5.47;2.60;;;;;;;10.28;80.84;101027.63;5084221;28;20028;-59
2022/12/20 09:28:44;;;;;;;5.97;2.90;;;;;;;10.30;81.18;101047.66;5086685;28;20521;-61
2022/12/20 09:31:14;;;;;;;3.67;2.70;;;;;;;10.27;81.54;101035.13;5087677;28;20040;-60
2022/12/20 09:33:40;;;;;;;3.47;2.70;;;;;;;10.30;81.36;101044.91;5089336;28;20098;-61
2022/12/20 09:36:09;;;;;;;5.40;2.60;;;;;;;10.32;81.47;101048.25;5087474;28;20094;-60
2022/12/20 09:38:35;;;;;;;5.22;2.97;;;;;;;10.34;81.48;101039.69;5084832;28;20043;-60
2022/12/20 09:41:04;;;;;;;3.75;2.60;;;;;;;10.34;81.61;101037.75;5068524;28;20020;-60
2022/12/20 09:43:30;;;;;;;4.57;2.67;;;;;;;10.34;81.38;101032.22;5081084;28;20020;-60
2022/12/20 09:46:00;;;;;;;4.70;2.50;;;;;;;10.35;81.59;101028.34;5069455;28;20472;-61
2022/12/20 09:48:52;;;;;;;4.75;2.70;;;;;;;10.38;81.21;101030.63;5077171;28;20200;-60
2022/12/20 09:51:24;;;;;;;4.35;2.60;;;;;;;10.38;81.29;101049.22;5081984;28;20044;-60
2022/12/20 09:54:23;;;;;;;5.40;2.88;;;;;;;10.36;81.01;101038.34;5089258;28;20059;-60
2022/12/20 09:57:23;;;;;;;3.85;2.75;;;;;;;10.39;81.10;101046.19;5068743;28;20154;-60
2022/12/20 09:59:49;;;;;;;3.47;2.60;;;;;;;10.37;81.02;101037.25;5079333;28;20028;-60
2022/12/20 10:02:22;;;;;;;4.28;2.65;;;;;;;10.39;81.17;101032.31;5083393;28;20027;-60
2022/12/20 10:04:48;;;;;;;4.40;2.40;;;;;;;10.39;81.16;101034.25;5084578;28;20530;-59
2022/12/20 10:07:38;;;;;;;4.63;2.50;;;;;;;10.40;81.07;101033.16;5081686;28;20028;-59
2022/12/20 10:10:16;;;;;;;3.70;2.80;;;;;;;10.40;80.82;101036.75;5085048;28;20027;-59
2022/12/20 10:12:59;;;;;;;4.15;2.80;;;;;;;10.43;80.79;101021.56;5069066;28;20032;-58
2022/12/20 10:15:32;;;;;;;3.88;2.65;;;;;;;10.45;80.69;101027.69;5078007;28;20036;-59
2022/12/20 10:18:23;;;;;;;6.30;2.33;;;;;;;10.48;80.68;101030.81;5079260;28;20068;-59
2022/12/20 10:21:11;;;;;;;3.58;2.40;;;;;;;10.50;80.47;101039.75;5077182;28;20032;-59
2022/12/20 10:23:51;;;;;;;5.65;2.42;;;;;;;10.51;80.33;101030.31;5048617;28;20044;-59
2022/12/20 10:26:16;;;;;;;5.80;4.47;;;;;;;10.52;80.19;101034.78;5071479;28;20028;-58
2022/12/20 10:28:42;;;;;;;5.97;3.58;;;;;;;10.54;79.99;101018.72;5084536;28;20046;-57
2022/12/20 10:31:12;;;;;;;6.28;3.03;;;;;;;10.55;80.60;101037.06;5083716;28;20035;-59
2022/12/20 10:33:38;;;;;;;7.50;3.38;;;;;;;10.58;80.48;101027.41;5086431;28;20036;-59
2022/12/20 10:36:22;;;;;;;5.38;3.17;;;;;;;10.60;80.46;101039.06;5086591;28;20539;-60
2022/12/20 10:38:51;;;;;;;4.95;2.67;;;;;;;10.57;81.23;101026.56;5077440;28;20059;-60
2022/12/20 10:41:19;;;;;;;6.25;2.83;;;;;;;10.57;81.48;101037.66;5084585;28;20112;-59
2022/12/20 10:43:49;;;;;;;5.57;3.17;;;;;;;10.54;81.84;101021.50;5086620;28;20027;-60
2022/12/20 10:46:15;;;;;;;4.38;3.13;;;;;;;10.55;81.82;101028.72;5086909;28;20032;-59
2022/12/20 10:48:42;;;;;;;6.72;2.97;;;;;;;10.56;81.92;101016.53;5081248;28;20032;-60
2022/12/20 10:51:07;;;;;;;6.00;3.40;;;;;;;10.56;82.38;101015.69;5072808;28;20032;-60
2022/12/20 10:53:33;;;;;;;6.72;3.53;;;;;;;10.54;82.75;101013.19;5086193;28;20036;-60
2022/12/20 10:56:33;;;;;;;3.80;2.92;;;;;;;10.56;82.58;101007.38;5083203;28;20036;-60
2022/12/20 10:59:27;;;;;;;5.32;3.03;;;;;;;10.56;82.56;101013.75;5080946;28;20036;-60
2022/12/20 11:01:52;;;;;;;3.97;3.58;;;;;;;10.53;83.28;101002.31;5074350;28;20038;-60
2022/12/20 11:04:30;;;;;;;4.28;3.17;;;;;;;10.53;82.74;101005.06;5079796;28;20020;-60
2022/12/20 11:06:56;;;;;;;5.47;3.58;;;;;;;10.51;83.35;101007.28;5083373;28;20089;-60
2022/12/20 11:09:36;;;;;;;4.28;3.50;;;;;;;10.52;83.50;101012.56;5069509;28;20472;-60
2022/12/20 11:12:11;;;;;;;4.50;2.92;;;;;;;10.51;83.24;100999.78;5080652;28;20514;-60
2022/12/20 11:14:38;;;;;;;4.75;3.00;;;;;;;10.52;83.50;101001.47;5090463;28;20032;-60
2022/12/20 11:17:26;;;;;;;7.00;3.40;;;;;;;10.50;83.73;100995.34;5089840;28;20047;-60
2022/12/20 11:20:07;;;;;;;4.95;3.45;;;;;;;10.52;83.63;100990.38;5066452;28;20036;-62
2022/12/20 11:23:29;;;;;;;6.00;4.38;;;;;;;10.54;83.61;100984.59;5089755;28;20050;-60
2022/12/20 11:26:25;;;;;;;9.38;4.00;;;;;;;10.50;84.05;100989.78;5023953;28;21695;-60
2022/12/20 11:29:02;;;;;;;6.72;3.60;;;;;;;10.48;84.30;101000.28;5028221;28;20147;-59
2022/12/20 11:31:50;;;;;;;6.80;4.07;;;;;;;10.47;84.45;100997.78;5083136;28;20142;-60
2022/12/20 11:34:15;;;;;;;5.75;3.67;;;;;;;10.47;84.45;100992.22;5090105;28;20052;-60
2022/12/20 11:36:58;;;;;;;8.95;4.57;;;;;;;10.46;84.60;100990.53;5087489;28;20117;-61
2022/12/20 11:39:30;;;;;;;;;;;;;;;10.52;83.16;100983.97;5078813;28;20171;-62
2022/12/20 11:42:16;;;;;;;6.88;4.80;;;;;;;10.48;84.67;100980.84;5071355;28;20031;-61